Accueil
METAR-TAF:

METAR-TAF

Aéroports :

Base aérienne 123 Orléans-Bricy

Orléans, France

latitude: 47-59N, longitude: 001-45E, altitude: 126 m

Observation

Le bulletin a été fait il y a 20 minutes, à 16:00 UTC
Vent 14 kt de ouest/sud-ouest
Température 22°C
Humidité 50%
Pression 1014 hPa
Visibilité 10 km ou plus
Quelques nuages à une hauteur de 4800 ft
Nuages fragmentés à une hauteur de 8400 ft

METAR: LFOJ 281600Z AUTO 24014KT 9999 FEW048 BKN084 22/11 Q1014 NOSIG

Heure: 18:20 (16:20 UTC)

Prévision

Le bulletin a été fait il y a 2 heures et 20 minutes, à 14:00 UTC
Prévision valable du 28 à 15 UTC au 29 à 15 UTC
Vent 13 kt de ouest/sud-ouest
Visibilité 10 km ou plus
Nuages épars à une hauteur de 4500 ft
Probabilité 30% :
Temporairement
du 29 à 04 UTC au 29 à 06 UTC
Visibilité: 4500 m
brume

TAF: LFOJ 281400Z 2815/2915 24013KT 9999 SCT045 TX23/2815Z TN12/2903Z PROB30 TEMPO 2904/2906 4500 BR

Observations et prévisions météorologiques de plus de 4000 aéroports (messages METAR et TAF).

Les stations disponibles sont représentées par des disques jaunes et rouges sur la carte.

Passer la souris dessus pour voir le nom de la station.

Cliquer dessus pour voir les observations et prévisions météorologiques.

Pour changer de carte: cliquez sur les boutons verts avec une croix noire pour zoomer, sur le bouton vert avec un tiret pour effectuer un zoom arrière, ou sur les flèches vertes pour les cartes adjacentes.


METAR-TAF: